Time;durP1;ratioP1;P1;durP2;ratioP2;P2;SDS_P1;SDS_P2;PMS_P1;PMS_P2;Temp;Humidity;BMP_temperature;BMP_pressure;BME280_temperature;BME280_humidity;BME280_pressure;Samples;Min_cycle;Max_cycle;Signal;HPM_P1;HPM_P2
2023/09/11 00:01:26;;;;;;;13.82;10.52;;;;;;;;;;4995703;28;25048;-72
2023/09/11 00:03:52;;;;;;;13.60;10.80;;;;;;;;;;4998911;28;25103;-72
2023/09/11 00:06:18;;;;;;;14.43;10.05;;;;;;;;;;4999636;28;25055;-74
2023/09/11 00:08:44;;;;;;;19.98;12.38;;;;;;;;;;4995432;28;25071;-71
2023/09/11 00:11:10;;;;;;;26.35;11.25;;;;;;;;;;4993044;28;25131;-71
2023/09/11 00:13:36;;;;;;;15.38;10.95;;;;;;;;;;5000028;28;25050;-70
2023/09/11 00:16:02;;;;;;;19.90;11.40;;;;;;;;;;5003929;28;25072;-73
2023/09/11 00:18:28;;;;;;;18.13;11.15;;;;;;;;;;5019428;28;25067;-72
2023/09/11 00:20:54;;;;;;;17.92;13.00;;;;;;;;;;5005251;28;25074;-72
2023/09/11 00:23:20;;;;;;;13.30;10.85;;;;;;;;;;5002195;28;25064;-72
2023/09/11 00:25:46;;;;;;;15.77;10.82;;;;;;;;;;4993247;28;25065;-69
2023/09/11 00:28:12;;;;;;;11.77;10.30;;;;;;;;;;4984368;28;25088;-71
2023/09/11 00:30:38;;;;;;;16.38;10.55;;;;;;;;;;4991979;28;25138;-71
2023/09/11 00:33:05;;;;;;;17.48;11.23;;;;;;;;;;4997984;28;25058;-71
2023/09/11 00:35:30;;;;;;;18.88;10.90;;;;;;;;;;4990050;28;25078;-69
2023/09/11 00:37:56;;;;;;;19.80;11.75;;;;;;;;;;4988050;28;25085;-70
2023/09/11 00:40:23;;;;;;;15.35;11.20;;;;;;;;;;4996314;28;25070;-73
2023/09/11 00:42:49;;;;;;;19.00;11.18;;;;;;;;;;4992689;28;25067;-72
2023/09/11 00:45:15;;;;;;;16.00;11.48;;;;;;;;;;4992848;28;25073;-72
2023/09/11 00:47:41;;;;;;;15.98;11.00;;;;;;;;;;4999827;28;25080;-73
2023/09/11 00:50:08;;;;;;;18.05;11.32;;;;;;;;;;4992235;28;25058;-72
2023/09/11 00:52:34;;;;;;;23.10;11.93;;;;;;;;;;4995629;28;25063;-71
2023/09/11 00:55:00;;;;;;;14.88;10.73;;;;;;;;;;4990474;28;25072;-74
2023/09/11 00:57:26;;;;;;;17.80;11.43;;;;;;;;;;4987249;28;25063;-73
2023/09/11 00:59:52;;;;;;;17.42;11.95;;;;;;;;;;4990918;28;25125;-71
2023/09/11 01:02:19;;;;;;;14.75;10.93;;;;;;;;;;4987140;28;25080;-75
2023/09/11 01:04:45;;;;;;;17.05;11.13;;;;;;;;;;4972729;28;25061;-71
2023/09/11 01:07:16;;;;;;;17.10;12.43;;;;;;;;;;4965288;28;25056;-70
2023/09/11 01:09:42;;;;;;;14.63;12.13;;;;;;;;;;4971669;28;25086;-72
2023/09/11 01:12:09;;;;;;;13.55;11.27;;;;;;;;;;4972915;28;25265;-71
2023/09/11 01:14:37;;;;;;;21.17;12.10;;;;;;;;;;4985427;28;25154;-71
2023/09/11 01:17:07;;;;;;;16.17;12.57;;;;;;;;;;4977022;28;25066;-72
2023/09/11 01:19:51;;;;;;;13.65;11.70;;;;;;;;;;4980089;28;25097;-72
2023/09/11 01:22:38;;;;;;;21.67;13.05;;;;;;;;;;4975755;28;25085;-70
2023/09/11 01:25:30;;;;;;;18.83;11.82;;;;;;;;;;4967114;28;25089;-74
2023/09/11 01:27:55;;;;;;;15.57;11.95;;;;;;;;;;4970107;28;25158;-72
2023/09/11 01:30:22;;;;;;;18.85;13.57;;;;;;;;;;4982757;28;25062;-72
2023/09/11 01:32:49;;;;;;;21.95;12.65;;;;;;;;;;4999544;28;25129;-73
2023/09/11 01:35:15;;;;;;;18.70;12.57;;;;;;;;;;4996877;28;25098;-71
2023/09/11 01:37:41;;;;;;;20.63;13.18;;;;;;;;;;4971469;28;25062;-72
2023/09/11 01:40:07;;;;;;;19.50;12.38;;;;;;;;;;4970050;28;25065;-72
2023/09/11 01:42:36;;;;;;;19.35;13.45;;;;;;;;;;4975580;28;25132;-71
2023/09/11 01:45:03;;;;;;;15.02;12.02;;;;;;;;;;4983093;28;25048;-72
2023/09/11 01:47:30;;;;;;;25.30;14.10;;;;;;;;;;4977008;28;25062;-72
2023/09/11 01:49:57;;;;;;;16.92;12.98;;;;;;;;;;4975956;28;25114;-71
2023/09/11 01:52:24;;;;;;;21.48;12.68;;;;;;;;;;4963718;28;25056;-74
2023/09/11 01:54:51;;;;;;;21.70;13.32;;;;;;;;;;4963821;28;25068;-72
2023/09/11 01:57:17;;;;;;;16.85;12.98;;;;;;;;;;4960729;28;25066;-71
2023/09/11 01:59:43;;;;;;;19.02;13.57;;;;;;;;;;4958799;28;25056;-72
2023/09/11 02:02:08;;;;;;;20.55;13.70;;;;;;;;;;4964231;28;25082;-74
2023/09/11 02:04:34;;;;;;;21.52;14.18;;;;;;;;;;4959932;28;25059;-70
2023/09/11 02:07:00;;;;;;;18.55;13.65;;;;;;;;;;4956694;28;25057;-70
2023/09/11 02:09:26;;;;;;;16.48;14.32;;;;;;;;;;4975496;28;25080;-72
2023/09/11 02:11:52;;;;;;;17.02;14.93;;;;;;;;;;4965908;28;25067;-72
2023/09/11 02:14:18;;;;;;;20.60;15.77;;;;;;;;;;4964291;28;25059;-71
2023/09/11 02:16:44;;;;;;;21.88;15.10;;;;;;;;;;4967813;28;25078;-72
2023/09/11 02:19:10;;;;;;;25.80;15.68;;;;;;;;;;4977134;28;25086;-74
2023/09/11 02:21:36;;;;;;;24.50;15.23;;;;;;;;;;4970111;28;25078;-70
2023/09/11 02:24:02;;;;;;;19.63;15.15;;;;;;;;;;4972789;28;25076;-70
2023/09/11 02:26:28;;;;;;;19.30;14.52;;;;;;;;;;4961166;28;25098;-70
2023/09/11 02:28:59;;;;;;;23.63;15.40;;;;;;;;;;4962827;28;25073;-73
2023/09/11 02:31:25;;;;;;;19.27;15.60;;;;;;;;;;4959094;28;25078;-71
2023/09/11 02:33:51;;;;;;;21.42;14.85;;;;;;;;;;4972791;28;25116;-72
2023/09/11 02:36:17;;;;;;;22.00;15.90;;;;;;;;;;4971659;28;25139;-71
2023/09/11 02:38:43;;;;;;;26.92;16.33;;;;;;;;;;4965589;28;25049;-72
2023/09/11 02:41:09;;;;;;;21.30;14.55;;;;;;;;;;4968403;28;25060;-72
2023/09/11 02:43:35;;;;;;;22.00;16.45;;;;;;;;;;4970494;28;25084;-72
2023/09/11 02:46:01;;;;;;;21.00;15.43;;;;;;;;;;4964539;28;25072;-72
2023/09/11 02:48:27;;;;;;;22.77;15.23;;;;;;;;;;4962560;28;25076;-70
2023/09/11 02:50:53;;;;;;;22.90;15.90;;;;;;;;;;4974177;28;25052;-72
2023/09/11 02:53:20;;;;;;;22.02;16.42;;;;;;;;;;4970167;28;25123;-73
2023/09/11 02:55:46;;;;;;;25.65;16.27;;;;;;;;;;4996463;28;25075;-71
2023/09/11 02:58:12;;;;;;;20.55;15.63;;;;;;;;;;5005482;28;25077;-71
2023/09/11 03:00:38;;;;;;;19.80;15.88;;;;;;;;;;5008368;28;25054;-72
2023/09/11 03:03:05;;;;;;;23.58;17.70;;;;;;;;;;5008698;28;25072;-72
2023/09/11 03:05:32;;;;;;;21.00;16.45;;;;;;;;;;4993097;28;25067;-70
2023/09/11 03:08:01;;;;;;;22.75;16.70;;;;;;;;;;4992131;28;25067;-71
2023/09/11 03:10:28;;;;;;;22.55;17.08;;;;;;;;;;4994779;28;25159;-71
2023/09/11 03:12:54;;;;;;;29.10;16.70;;;;;;;;;;4995564;28;25075;-71
2023/09/11 03:15:20;;;;;;;20.10;17.40;;;;;;;;;;4995035;28;25085;-73
2023/09/11 03:17:49;;;;;;;25.45;16.73;;;;;;;;;;4994613;28;25106;-70
2023/09/11 03:20:15;;;;;;;19.10;16.23;;;;;;;;;;4996353;28;25056;-72
2023/09/11 03:22:41;;;;;;;20.63;15.18;;;;;;;;;;4994528;28;25141;-72
2023/09/11 03:25:08;;;;;;;26.67;17.15;;;;;;;;;;4992003;28;25105;-71
2023/09/11 03:27:34;;;;;;;23.52;16.70;;;;;;;;;;4997846;28;25156;-72
2023/09/11 03:30:00;;;;;;;23.85;15.13;;;;;;;;;;4993369;28;25075;-72
2023/09/11 03:32:26;;;;;;;19.58;14.52;;;;;;;;;;4992272;28;25174;-74
2023/09/11 03:34:53;;;;;;;21.33;15.45;;;;;;;;;;4997680;28;25051;-72
2023/09/11 03:37:20;;;;;;;21.15;16.23;;;;;;;;;;4997335;28;25085;-75
2023/09/11 03:39:46;;;;;;;24.67;15.02;;;;;;;;;;4995604;28;25057;-71
2023/09/11 03:42:12;;;;;;;17.60;15.32;;;;;;;;;;4996162;28;25139;-71
2023/09/11 03:44:38;;;;;;;24.05;15.40;;;;;;;;;;4992737;28;25071;-71
2023/09/11 03:47:04;;;;;;;21.00;15.48;;;;;;;;;;5000891;28;25054;-70
2023/09/11 03:49:30;;;;;;;17.35;15.10;;;;;;;;;;4996472;28;25075;-72
2023/09/11 03:51:57;;;;;;;24.80;16.42;;;;;;;;;;4996958;28;25071;-72
2023/09/11 03:54:22;;;;;;;21.35;14.23;;;;;;;;;;5002049;28;25062;-72
2023/09/11 03:56:48;;;;;;;19.67;15.32;;;;;;;;;;5002803;28;25084;-74
2023/09/11 03:59:14;;;;;;;20.48;14.77;;;;;;;;;;5000053;28;25108;-72
2023/09/11 04:01:40;;;;;;;23.02;14.85;;;;;;;;;;5003289;28;25056;-72
2023/09/11 04:04:06;;;;;;;30.35;14.63;;;;;;;;;;5004133;28;25089;-73
2023/09/11 04:06:32;;;;;;;19.83;14.15;;;;;;;;;;5002591;28;25049;-72
2023/09/11 04:08:58;;;;;;;23.42;14.80;;;;;;;;;;4999316;28;25078;-72
2023/09/11 04:11:24;;;;;;;22.98;13.57;;;;;;;;;;5001615;28;25065;-72
2023/09/11 04:13:50;;;;;;;20.50;14.50;;;;;;;;;;5000496;28;25129;-71
2023/09/11 04:16:16;;;;;;;21.48;14.05;;;;;;;;;;4999496;28;25169;-72
2023/09/11 04:18:43;;;;;;;22.58;14.48;;;;;;;;;;4996219;28;25052;-72
2023/09/11 04:21:09;;;;;;;19.05;14.35;;;;;;;;;;4997152;28;25058;-72
2023/09/11 04:23:35;;;;;;;15.80;12.90;;;;;;;;;;4999642;28;25049;-72
2023/09/11 04:26:01;;;;;;;17.98;13.02;;;;;;;;;;4994816;28;25123;-69
2023/09/11 04:28:27;;;;;;;21.77;13.18;;;;;;;;;;4993751;28;25082;-73
2023/09/11 04:30:53;;;;;;;23.33;13.15;;;;;;;;;;4987536;28;25066;-71
2023/09/11 04:33:20;;;;;;;17.52;12.43;;;;;;;;;;4993851;28;25084;-71
2023/09/11 04:35:46;;;;;;;19.88;12.32;;;;;;;;;;4994241;28;25074;-72
2023/09/11 04:38:12;;;;;;;18.33;12.93;;;;;;;;;;4990912;28;25162;-71
2023/09/11 04:40:39;;;;;;;21.27;13.45;;;;;;;;;;4983711;28;25149;-72
2023/09/11 04:43:05;;;;;;;20.95;12.85;;;;;;;;;;4990665;28;25090;-75
2023/09/11 04:45:31;;;;;;;20.55;13.10;;;;;;;;;;4987767;28;25162;-72
2023/09/11 04:47:57;;;;;;;21.80;13.43;;;;;;;;;;4993606;28;25091;-73
2023/09/11 04:50:23;;;;;;;17.02;12.45;;;;;;;;;;4993819;28;25155;-72
2023/09/11 04:52:49;;;;;;;16.90;12.35;;;;;;;;;;4988310;28;25080;-73
2023/09/11 04:55:15;;;;;;;23.85;12.82;;;;;;;;;;4990560;28;25067;-74
2023/09/11 04:57:41;;;;;;;19.08;12.98;;;;;;;;;;4987318;28;25148;-72
2023/09/11 05:00:10;;;;;;;23.83;13.00;;;;;;;;;;4992126;28;25059;-73
2023/09/11 05:02:37;;;;;;;17.70;13.02;;;;;;;;;;4987843;28;25082;-73
2023/09/11 05:05:03;;;;;;;17.02;13.10;;;;;;;;;;4992203;28;25075;-72
2023/09/11 05:07:29;;;;;;;20.00;13.27;;;;;;;;;;4993344;28;25052;-73
2023/09/11 05:09:56;;;;;;;17.30;12.70;;;;;;;;;;4992416;28;25068;-72
2023/09/11 05:12:22;;;;;;;20.35;12.98;;;;;;;;;;4990203;28;25156;-70
2023/09/11 05:14:48;;;;;;;17.02;13.23;;;;;;;;;;4989902;28;25045;-72
2023/09/11 05:17:14;;;;;;;20.65;12.77;;;;;;;;;;4991837;28;25084;-73
2023/09/11 05:19:41;;;;;;;17.77;12.98;;;;;;;;;;4992095;28;25064;-71
2023/09/11 05:22:08;;;;;;;20.10;13.05;;;;;;;;;;4984665;28;25056;-73
2023/09/11 05:24:34;;;;;;;20.83;12.90;;;;;;;;;;4991966;28;25081;-73
2023/09/11 05:27:00;;;;;;;18.25;13.20;;;;;;;;;;4991511;28;25078;-72
2023/09/11 05:29:27;;;;;;;17.10;12.73;;;;;;;;;;4992860;28;25074;-72
2023/09/11 05:31:53;;;;;;;20.73;14.45;;;;;;;;;;4991391;28;25099;-71
2023/09/11 05:34:19;;;;;;;19.55;12.73;;;;;;;;;;4986631;28;25093;-73
2023/09/11 05:36:46;;;;;;;18.52;13.20;;;;;;;;;;4988509;28;25102;-71
2023/09/11 05:39:12;;;;;;;21.27;13.68;;;;;;;;;;4985892;28;25092;-74
2023/09/11 05:41:38;;;;;;;20.83;14.48;;;;;;;;;;4984996;28;25203;-71
2023/09/11 05:44:04;;;;;;;21.73;13.13;;;;;;;;;;4976696;28;25073;-72
2023/09/11 05:46:30;;;;;;;21.73;12.82;;;;;;;;;;4981139;28;25129;-73
2023/09/11 05:48:56;;;;;;;20.30;12.95;;;;;;;;;;4985006;28;25065;-73
2023/09/11 05:51:22;;;;;;;22.75;13.88;;;;;;;;;;4986942;28;25047;-73
2023/09/11 05:53:48;;;;;;;22.70;14.05;;;;;;;;;;4982741;28;25085;-73
2023/09/11 05:56:14;;;;;;;17.75;13.57;;;;;;;;;;4989852;28;25099;-71
2023/09/11 05:58:40;;;;;;;21.42;14.63;;;;;;;;;;4997962;28;25077;-74
2023/09/11 06:01:06;;;;;;;20.98;13.63;;;;;;;;;;4995338;28;25075;-72
2023/09/11 06:03:32;;;;;;;21.33;14.10;;;;;;;;;;4994884;28;25056;-73
2023/09/11 06:05:59;;;;;;;21.25;14.35;;;;;;;;;;4994366;28;25061;-72
2023/09/11 06:08:25;;;;;;;20.35;13.52;;;;;;;;;;4985890;28;25123;-73
2023/09/11 06:10:51;;;;;;;19.48;14.68;;;;;;;;;;4994382;28;25071;-70
2023/09/11 06:13:17;;;;;;;22.35;13.23;;;;;;;;;;4992779;28;25084;-73
2023/09/11 06:15:43;;;;;;;25.75;14.52;;;;;;;;;;4993947;28;25088;-74
2023/09/11 06:18:09;;;;;;;19.95;14.70;;;;;;;;;;4993856;28;25072;-72
2023/09/11 06:20:35;;;;;;;21.15;15.85;;;;;;;;;;4999269;28;25102;-73
2023/09/11 06:23:01;;;;;;;27.15;16.42;;;;;;;;;;4998869;28;25129;-68
2023/09/11 06:25:27;;;;;;;24.58;16.90;;;;;;;;;;5003257;28;25079;-73
2023/09/11 06:27:53;;;;;;;24.67;17.27;;;;;;;;;;4992866;28;25062;-73
2023/09/11 06:30:19;;;;;;;22.98;17.90;;;;;;;;;;4991021;28;25106;-72
2023/09/11 06:32:45;;;;;;;22.30;16.92;;;;;;;;;;4997204;28;25068;-74
2023/09/11 06:35:11;;;;;;;27.13;19.15;;;;;;;;;;4996386;28;25069;-72
2023/09/11 06:37:37;;;;;;;33.80;18.67;;;;;;;;;;5003686;28;25072;-73
2023/09/11 06:40:07;;;;;;;31.52;19.75;;;;;;;;;;5004676;28;25083;-74
2023/09/11 06:42:34;;;;;;;26.80;19.85;;;;;;;;;;5012723;28;25172;-75
2023/09/11 06:45:00;;;;;;;28.05;18.75;;;;;;;;;;4997864;28;25106;-73
2023/09/11 06:47:26;;;;;;;24.42;16.73;;;;;;;;;;4988217;28;25048;-73
2023/09/11 06:49:52;;;;;;;26.50;18.83;;;;;;;;;;4986902;28;25070;-74
2023/09/11 06:52:20;;;;;;;38.15;20.23;;;;;;;;;;4987385;28;25094;-72
2023/09/11 06:54:46;;;;;;;30.55;20.23;;;;;;;;;;4992376;28;25074;-72
2023/09/11 06:57:12;;;;;;;28.15;19.63;;;;;;;;;;4987976;28;25051;-72
2023/09/11 06:59:38;;;;;;;30.83;19.33;;;;;;;;;;4994206;28;25103;-70
2023/09/11 07:02:04;;;;;;;27.33;20.58;;;;;;;;;;4994495;28;25114;-70
2023/09/11 07:04:33;;;;;;;30.02;21.13;;;;;;;;;;4993190;28;25058;-73
2023/09/11 07:06:59;;;;;;;31.90;20.75;;;;;;;;;;4993083;28;25047;-71
2023/09/11 07:09:25;;;;;;;33.15;21.02;;;;;;;;;;4986228;28;25079;-71
2023/09/11 07:11:51;;;;;;;27.67;21.05;;;;;;;;;;4986922;28;25098;-69
2023/09/11 07:14:20;;;;;;;32.58;21.40;;;;;;;;;;4985656;28;25075;-71
2023/09/11 07:16:46;;;;;;;34.90;24.50;;;;;;;;;;4994870;28;25135;-72
2023/09/11 07:19:12;;;;;;;31.27;22.77;;;;;;;;;;4985727;28;25076;-72
2023/09/11 07:21:38;;;;;;;30.40;22.52;;;;;;;;;;4986018;28;25141;-71
2023/09/11 07:24:05;;;;;;;35.65;23.45;;;;;;;;;;4980793;28;25098;-72
2023/09/11 07:26:31;;;;;;;32.92;22.25;;;;;;;;;;4984850;28;25058;-71
2023/09/11 07:28:58;;;;;;;33.60;23.67;;;;;;;;;;4987413;28;25075;-71
2023/09/11 07:31:24;;;;;;;30.85;22.80;;;;;;;;;;4989225;28;25104;-71
2023/09/11 07:33:50;;;;;;;34.03;22.02;;;;;;;;;;4986539;28;25068;-69
2023/09/11 07:36:18;;;;;;;35.50;23.02;;;;;;;;;;4987310;28;25081;-73
2023/09/11 07:38:46;;;;;;;29.60;22.83;;;;;;;;;;4986427;28;25050;-71
2023/09/11 07:41:16;;;;;;;36.20;24.05;;;;;;;;;;4987191;28;25055;-70
2023/09/11 07:43:44;;;;;;;35.08;23.48;;;;;;;;;;4988843;28;25124;-71
2023/09/11 07:46:10;;;;;;;28.05;21.27;;;;;;;;;;4990930;28;25121;-73
2023/09/11 07:48:35;;;;;;;35.33;23.17;;;;;;;;;;4993940;28;25160;-72
2023/09/11 07:51:02;;;;;;;34.85;23.95;;;;;;;;;;4989505;28;25126;-70
2023/09/11 07:53:28;;;;;;;34.40;22.35;;;;;;;;;;4985466;28;25071;-73
2023/09/11 07:55:54;;;;;;;29.52;22.00;;;;;;;;;;4992568;28;25074;-74
2023/09/11 07:58:20;;;;;;;37.72;23.52;;;;;;;;;;4993356;28;25076;-73
2023/09/11 08:00:46;;;;;;;38.08;22.75;;;;;;;;;;4994032;28;25055;-72
2023/09/11 08:03:12;;;;;;;30.30;21.10;;;;;;;;;;4990824;28;25058;-70
2023/09/11 08:05:38;;;;;;;28.05;18.90;;;;;;;;;;4997340;28;25145;-73
2023/09/11 08:08:04;;;;;;;31.55;21.02;;;;;;;;;;4996720;28;25074;-74
2023/09/11 08:10:30;;;;;;;34.17;21.35;;;;;;;;;;4991727;28;25105;-74
2023/09/11 08:12:56;;;;;;;30.75;20.08;;;;;;;;;;4997856;28;25097;-74
2023/09/11 08:15:22;;;;;;;28.83;20.27;;;;;;;;;;5005647;28;25077;-73
2023/09/11 08:17:48;;;;;;;28.08;18.98;;;;;;;;;;4995164;28;25087;-73
2023/09/11 08:20:14;;;;;;;31.15;18.27;;;;;;;;;;4991734;28;25080;-79
2023/09/11 08:22:41;;;;;;;23.67;16.40;;;;;;;;;;4991912;28;25062;-71
2023/09/11 08:25:09;;;;;;;27.25;16.70;;;;;;;;;;4991923;28;25073;-72
2023/09/11 08:27:35;;;;;;;30.33;16.80;;;;;;;;;;4991037;28;25058;-70
2023/09/11 08:30:01;;;;;;;23.38;16.23;;;;;;;;;;4994540;28;25106;-72
2023/09/11 08:32:27;;;;;;;31.63;17.50;;;;;;;;;;5000282;28;25103;-74
2023/09/11 08:34:53;;;;;;;25.02;15.40;;;;;;;;;;4991932;28;25069;-73
2023/09/11 08:37:19;;;;;;;18.67;14.27;;;;;;;;;;5009034;28;25096;-75
2023/09/11 08:39:45;;;;;;;25.45;15.52;;;;;;;;;;4989298;28;25131;-70
2023/09/11 08:42:11;;;;;;;26.38;15.80;;;;;;;;;;4989503;28;25074;-71
2023/09/11 08:44:38;;;;;;;20.50;15.52;;;;;;;;;;4986473;28;25081;-72
2023/09/11 08:47:05;;;;;;;21.10;14.15;;;;;;;;;;4986559;28;25065;-73
2023/09/11 08:49:33;;;;;;;19.15;12.57;;;;;;;;;;4985109;28;25040;-71
2023/09/11 08:52:02;;;;;;;21.25;11.35;;;;;;;;;;4986296;28;25164;-71
2023/09/11 08:54:33;;;;;;;23.92;10.60;;;;;;;;;;4992009;28;25060;-70
2023/09/11 08:56:59;;;;;;;11.98;8.77;;;;;;;;;;4984702;28;25070;-70
2023/09/11 08:59:26;;;;;;;18.45;9.27;;;;;;;;;;4983979;28;25159;-71
2023/09/11 09:01:52;;;;;;;16.02;8.48;;;;;;;;;;4985768;28;25078;-72
2023/09/11 09:04:19;;;;;;;17.88;7.93;;;;;;;;;;4981958;28;25042;-72
2023/09/11 09:06:46;;;;;;;12.68;8.18;;;;;;;;;;4985218;28;25093;-70
2023/09/11 09:09:12;;;;;;;14.73;7.80;;;;;;;;;;4985109;28;25067;-75
2023/09/11 09:11:39;;;;;;;14.70;7.22;;;;;;;;;;4986725;28;25088;-71
2023/09/11 09:14:09;;;;;;;11.30;6.40;;;;;;;;;;4984124;28;25122;-73
2023/09/11 09:16:35;;;;;;;12.65;6.57;;;;;;;;;;4990848;28;25137;-72
2023/09/11 09:19:01;;;;;;;10.80;6.10;;;;;;;;;;4986802;28;25089;-71
2023/09/11 09:21:28;;;;;;;12.75;6.65;;;;;;;;;;4983450;28;25050;-71
2023/09/11 09:23:54;;;;;;;12.40;5.90;;;;;;;;;;4983350;28;25130;-72
2023/09/11 09:26:22;;;;;;;13.00;6.40;;;;;;;;;;4985196;28;25058;-74
2023/09/11 09:28:51;;;;;;;11.40;6.72;;;;;;;;;;4985797;28;25057;-71
2023/09/11 09:31:24;;;;;;;14.93;6.90;;;;;;;;;;4985390;28;25065;-71
2023/09/11 09:33:52;;;;;;;12.75;6.82;;;;;;;;;;4986026;28;25072;-71
2023/09/11 09:36:18;;;;;;;10.63;6.55;;;;;;;;;;4985166;28;25056;-69
2023/09/11 09:38:44;;;;;;;11.20;6.45;;;;;;;;;;4985129;28;25061;-72
2023/09/11 09:41:10;;;;;;;11.48;5.95;;;;;;;;;;4988923;28;25103;-71
2023/09/11 09:43:36;;;;;;;14.60;6.57;;;;;;;;;;4994136;28;25081;-72
2023/09/11 09:46:17;;;;;;;14.60;7.00;;;;;;;;;;4995602;28;25048;-72
2023/09/11 09:48:43;;;;;;;8.10;5.07;;;;;;;;;;4989646;28;25077;-72
2023/09/11 09:51:09;;;;;;;11.23;4.90;;;;;;;;;;4993956;28;25069;-71
2023/09/11 09:53:41;;;;;;;8.73;5.63;;;;;;;;;;4992289;28;25131;-70
2023/09/11 09:56:08;;;;;;;11.48;5.78;;;;;;;;;;4993103;28;25106;-71
2023/09/11 09:58:34;;;;;;;10.18;5.65;;;;;;;;;;4996529;28;25109;-72
2023/09/11 10:01:08;;;;;;;11.70;6.40;;;;;;;;;;4996386;28;25064;-72
2023/09/11 10:03:45;;;;;;;11.60;7.03;;;;;;;;;;4993100;28;25066;-72
2023/09/11 10:06:15;;;;;;;13.02;5.90;;;;;;;;;;5001564;28;25086;-72
2023/09/11 10:08:41;;;;;;;13.43;6.35;;;;;;;;;;5003991;28;25090;-72
2023/09/11 10:11:07;;;;;;;11.25;5.72;;;;;;;;;;5005014;28;25109;-72
2023/09/11 10:13:38;;;;;;;15.25;6.18;;;;;;;;;;5003089;28;25103;-71
2023/09/11 10:16:04;;;;;;;8.77;5.47;;;;;;;;;;5003709;28;25061;-73
2023/09/11 10:18:31;;;;;;;13.52;6.60;;;;;;;;;;4997691;28;25095;-71
2023/09/11 10:20:58;;;;;;;8.77;6.30;;;;;;;;;;4996011;28;25141;-74
2023/09/11 10:23:23;;;;;;;11.80;6.35;;;;;;;;;;4999013;28;25079;-72
2023/09/11 10:25:51;;;;;;;10.57;6.00;;;;;;;;;;4995672;28;25114;-73
2023/09/11 10:28:23;;;;;;;12.10;5.78;;;;;;;;;;4999101;28;25110;-72
2023/09/11 10:30:53;;;;;;;10.93;5.63;;;;;;;;;;4998767;28;25134;-75
2023/09/11 10:33:21;;;;;;;10.45;5.55;;;;;;;;;;5001958;28;25090;-73
2023/09/11 10:35:48;;;;;;;10.40;5.50;;;;;;;;;;4998085;28;25055;-72
2023/09/11 10:38:16;;;;;;;12.70;5.40;;;;;;;;;;4990808;28;25069;-74
2023/09/11 10:40:43;;;;;;;10.25;4.70;;;;;;;;;;4991413;28;25093;-71
2023/09/11 10:43:09;;;;;;;12.27;4.72;;;;;;;;;;4991658;28;25079;-72
2023/09/11 10:45:36;;;;;;;8.10;4.65;;;;;;;;;;4995900;28;25140;-70
2023/09/11 10:48:02;;;;;;;8.73;5.53;;;;;;;;;;4991825;28;25137;-72
2023/09/11 10:50:35;;;;;;;12.23;5.13;;;;;;;;;;4999045;28;25152;-72
2023/09/11 10:53:03;;;;;;;12.38;5.50;;;;;;;;;;4987523;28;25052;-69
2023/09/11 10:55:29;;;;;;;12.70;5.68;;;;;;;;;;4998891;28;25152;-72
2023/09/11 10:57:59;;;;;;;8.00;5.50;;;;;;;;;;4987953;28;25053;-72
2023/09/11 11:00:26;;;;;;;11.05;6.20;;;;;;;;;;4990114;28;25155;-74
2023/09/11 11:02:53;;;;;;;13.15;6.65;;;;;;;;;;4986068;28;25110;-72
2023/09/11 11:05:19;;;;;;;11.73;6.53;;;;;;;;;;4990955;28;25053;-74
2023/09/11 11:07:51;;;;;;;13.40;6.10;;;;;;;;;;4989821;28;25142;-71
2023/09/11 11:10:18;;;;;;;11.52;6.03;;;;;;;;;;4975168;28;25160;-74
2023/09/11 11:12:45;;;;;;;15.75;7.90;;;;;;;;;;4966446;28;25060;-71
2023/09/11 11:15:18;;;;;;;15.75;7.07;;;;;;;;;;4963808;28;25072;-73
2023/09/11 11:17:44;;;;;;;11.23;6.10;;;;;;;;;;4961186;28;25094;-71
2023/09/11 11:20:11;;;;;;;12.93;6.97;;;;;;;;;;4975021;28;25074;-71
2023/09/11 11:22:40;;;;;;;12.07;7.55;;;;;;;;;;4962977;28;25123;-71
2023/09/11 11:25:10;;;;;;;10.23;7.10;;;;;;;;;;4973025;28;25075;-72
2023/09/11 11:27:36;;;;;;;11.57;6.70;;;;;;;;;;4973338;28;25072;-72
2023/09/11 11:30:04;;;;;;;20.10;8.98;;;;;;;;;;4962943;28;25064;-74
2023/09/11 11:32:30;;;;;;;14.95;8.95;;;;;;;;;;4966842;28;25086;-71
2023/09/11 11:34:58;;;;;;;13.98;8.20;;;;;;;;;;4971647;28;25072;-73
2023/09/11 11:37:25;;;;;;;14.60;7.85;;;;;;;;;;4960988;28;25122;-72
2023/09/11 11:39:51;;;;;;;15.88;8.00;;;;;;;;;;4970648;28;25081;-73
2023/09/11 11:42:17;;;;;;;18.33;8.18;;;;;;;;;;4989970;28;25068;-72
2023/09/11 11:44:43;;;;;;;14.38;7.82;;;;;;;;;;4970928;28;25090;-72
2023/09/11 11:47:09;;;;;;;22.77;8.43;;;;;;;;;;4981976;28;25053;-74
2023/09/11 11:49:36;;;;;;;15.40;9.50;;;;;;;;;;4995921;28;25150;-73
2023/09/11 11:52:03;;;;;;;12.90;8.18;;;;;;;;;;4972163;28;25087;-70
2023/09/11 11:54:29;;;;;;;19.20;10.32;;;;;;;;;;4974968;28;25068;-73
2023/09/11 11:56:56;;;;;;;18.33;9.40;;;;;;;;;;4970681;28;25143;-72
2023/09/11 11:59:22;;;;;;;15.30;9.35;;;;;;;;;;4963823;28;25055;-73
2023/09/11 12:01:48;;;;;;;17.83;10.60;;;;;;;;;;4973475;28;25084;-72
2023/09/11 12:04:14;;;;;;;20.00;9.95;;;;;;;;;;4961325;28;25058;-71
2023/09/11 12:06:42;;;;;;;17.85;9.55;;;;;;;;;;4965049;28;25112;-71
2023/09/11 12:09:09;;;;;;;16.42;9.50;;;;;;;;;;4971392;28;25082;-72
2023/09/11 12:11:37;;;;;;;13.52;9.45;;;;;;;;;;4962597;28;25080;-72
2023/09/11 12:14:03;;;;;;;16.98;8.77;;;;;;;;;;4965482;28;25062;-71
2023/09/11 12:16:32;;;;;;;16.45;9.52;;;;;;;;;;4974763;28;25135;-74
2023/09/11 12:18:58;;;;;;;16.08;8.82;;;;;;;;;;4967722;28;25073;-72
2023/09/11 12:21:24;;;;;;;14.70;10.90;;;;;;;;;;4964835;28;25059;-71
2023/09/11 12:23:50;;;;;;;16.17;10.02;;;;;;;;;;4965474;28;25072;-73
2023/09/11 12:26:16;;;;;;;17.20;9.23;;;;;;;;;;4968504;28;25061;-70
2023/09/11 12:28:42;;;;;;;16.23;9.85;;;;;;;;;;4970662;28;25115;-71
2023/09/11 12:31:08;;;;;;;23.23;10.73;;;;;;;;;;4965414;28;25170;-74
2023/09/11 12:33:35;;;;;;;20.25;10.93;;;;;;;;;;4966219;28;25063;-75
2023/09/11 12:36:01;;;;;;;19.98;12.35;;;;;;;;;;4969695;28;25111;-74
2023/09/11 12:38:27;;;;;;;22.23;12.13;;;;;;;;;;4962256;28;25145;-72
2023/09/11 12:40:53;;;;;;;15.57;10.30;;;;;;;;;;4967440;28;25055;-71
2023/09/11 12:43:20;;;;;;;18.83;11.93;;;;;;;;;;4964954;28;25098;-73
2023/09/11 12:45:46;;;;;;;16.42;11.80;;;;;;;;;;4967737;28;25079;-70
2023/09/11 12:48:12;;;;;;;18.38;12.65;;;;;;;;;;4964396;28;25080;-73
2023/09/11 12:50:39;;;;;;;19.55;11.70;;;;;;;;;;4968345;28;25086;-71
2023/09/11 12:53:05;;;;;;;22.33;12.48;;;;;;;;;;4966364;28;25064;-72
2023/09/11 12:55:31;;;;;;;23.73;13.30;;;;;;;;;;4971852;28;25071;-72
2023/09/11 12:58:01;;;;;;;19.90;12.93;;;;;;;;;;4968679;28;25095;-73
2023/09/11 13:00:31;;;;;;;21.67;13.25;;;;;;;;;;4965753;28;25088;-74
2023/09/11 13:03:01;;;;;;;24.02;13.60;;;;;;;;;;4968138;28;25139;-72
2023/09/11 13:05:31;;;;;;;20.27;13.05;;;;;;;;;;4963175;28;25081;-71
2023/09/11 13:07:57;;;;;;;17.95;12.55;;;;;;;;;;4967164;28;25071;-72
2023/09/11 13:10:23;;;;;;;20.05;12.82;;;;;;;;;;4961791;28;25159;-72
2023/09/11 13:12:49;;;;;;;23.60;13.55;;;;;;;;;;4967525;28;25077;-75
2023/09/11 13:15:16;;;;;;;24.25;13.98;;;;;;;;;;4961924;28;25060;-73
2023/09/11 13:17:42;;;;;;;15.70;11.38;;;;;;;;;;4961544;28;25088;-70
2023/09/11 13:20:08;;;;;;;19.25;12.77;;;;;;;;;;4965776;28;25146;-72
2023/09/11 13:22:34;;;;;;;23.45;13.88;;;;;;;;;;4970799;28;25166;-73
2023/09/11 13:25:00;;;;;;;25.85;14.35;;;;;;;;;;4986615;28;25153;-74
2023/09/11 13:27:26;;;;;;;21.88;16.20;;;;;;;;;;4984721;28;25045;-72
2023/09/11 13:29:53;;;;;;;25.23;12.82;;;;;;;;;;4985605;28;25064;-71
2023/09/11 13:32:19;;;;;;;17.10;12.55;;;;;;;;;;4987004;28;25098;-75
2023/09/11 13:34:45;;;;;;;18.83;12.52;;;;;;;;;;4983076;28;25150;-73
2023/09/11 13:37:13;;;;;;;20.60;13.10;;;;;;;;;;4980295;28;25099;-71
2023/09/11 13:39:40;;;;;;;15.93;11.00;;;;;;;;;;4983379;28;25043;-72
2023/09/11 13:42:06;;;;;;;20.50;12.18;;;;;;;;;;4983345;28;25134;-72
2023/09/11 13:44:32;;;;;;;19.77;12.23;;;;;;;;;;4984451;28;25095;-73
2023/09/11 13:46:58;;;;;;;18.30;10.63;;;;;;;;;;4987050;28;25088;-72
2023/09/11 13:49:24;;;;;;;15.23;10.70;;;;;;;;;;4987570;28;25161;-71
2023/09/11 13:51:53;;;;;;;18.67;12.20;;;;;;;;;;4992917;28;25086;-75
2023/09/11 13:54:19;;;;;;;18.58;11.55;;;;;;;;;;5000741;28;25090;-75
2023/09/11 13:56:45;;;;;;;17.58;9.80;;;;;;;;;;4995484;28;25062;-73
2023/09/11 13:59:11;;;;;;;17.70;10.18;;;;;;;;;;4998728;28;25081;-72
2023/09/11 14:01:37;;;;;;;19.70;10.40;;;;;;;;;;4987386;28;25047;-72
2023/09/11 14:04:03;;;;;;;19.10;12.10;;;;;;;;;;4984723;28;25080;-73
2023/09/11 14:06:29;;;;;;;21.17;11.25;;;;;;;;;;4985222;28;25122;-71
2023/09/11 14:08:55;;;;;;;14.63;10.20;;;;;;;;;;4986213;28;25075;-72
2023/09/11 14:11:21;;;;;;;13.50;10.50;;;;;;;;;;4985971;28;25146;-72
2023/09/11 14:13:47;;;;;;;14.00;10.13;;;;;;;;;;4982742;28;25069;-71
2023/09/11 14:16:13;;;;;;;14.55;10.13;;;;;;;;;;4983532;28;25055;-72
2023/09/11 14:18:39;;;;;;;16.88;10.23;;;;;;;;;;4984769;28;25066;-74